Time;durP1;ratioP1;P1;durP2;ratioP2;P2;SDS_P1;SDS_P2;PMS_P1;PMS_P2;Temp;Humidity;BMP_temperature;BMP_pressure;BME280_temperature;BME280_humidity;BME280_pressure;Samples;Min_cycle;Max_cycle;Signal;HPM_P1;HPM_P2
2022/12/30 00:02:05;;;;;;;6.95;1.60;;;;;;;;;;5070183;28;20203;-64
2022/12/30 00:04:33;;;;;;;3.00;2.20;;;;;;;;;;5063349;28;20211;-66
2022/12/30 00:07:01;;;;;;;9.50;2.35;;;;;;;;;;5073152;28;20220;-66
2022/12/30 00:09:29;;;;;;;6.22;1.70;;;;;;;;;;5073386;28;20211;-66
2022/12/30 00:33:06;;;;;;;1.45;1.30;;;;;;;;;;5072761;28;20196;-66
2022/12/30 00:34:20;;;;;;;4.95;1.60;;;;;;;;;;5073023;28;20610;-66
2022/12/30 00:36:48;;;;;;;4.45;1.65;;;;;;;;;;5072548;28;20203;-65
2022/12/30 00:39:17;;;;;;;4.70;2.00;;;;;;;;;;5072839;28;20196;-65
2022/12/30 00:44:31;;;;;;;5.68;2.25;;;;;;;;;;5072799;28;20223;-66
2022/12/30 00:47:00;;;;;;;2.75;1.75;;;;;;;;;;5072309;28;20196;-66
2022/12/30 00:57:47;;;;;;;3.60;2.00;;;;;;;;;;5056542;28;20196;-66
2022/12/30 01:00:16;;;;;;;2.10;1.80;;;;;;;;;;5059502;28;20231;-66
2022/12/30 01:02:46;;;;;;;8.80;2.05;;;;;;;;;;5070759;28;20208;-66
2022/12/30 01:05:14;;;;;;;3.92;2.10;;;;;;;;;;5070426;28;20253;-66
2022/12/30 01:07:42;;;;;;;5.05;2.25;;;;;;;;;;5056970;28;20207;-66
2022/12/30 01:10:12;;;;;;;4.50;1.95;;;;;;;;;;5069335;28;20192;-66
2022/12/30 01:12:40;;;;;;;3.70;2.30;;;;;;;;;;5059464;28;20208;-66
2022/12/30 01:15:09;;;;;;;2.70;1.83;;;;;;;;;;5060889;28;20211;-66
2022/12/30 01:17:38;;;;;;;2.90;2.30;;;;;;;;;;5070985;28;20202;-66
2022/12/30 01:20:08;;;;;;;6.15;2.42;;;;;;;;;;5060842;28;20206;-64
2022/12/30 01:22:36;;;;;;;3.80;2.15;;;;;;;;;;5063048;28;20216;-64
2022/12/30 01:25:05;;;;;;;4.07;2.33;;;;;;;;;;5074859;28;20222;-64
2022/12/30 01:27:33;;;;;;;4.55;2.40;;;;;;;;;;5076149;28;20276;-64
2022/12/30 01:30:01;;;;;;;5.10;2.80;;;;;;;;;;5068409;28;20208;-64
2022/12/30 01:32:30;;;;;;;5.45;2.30;;;;;;;;;;5075163;28;20200;-65
2022/12/30 01:34:59;;;;;;;6.18;2.65;;;;;;;;;;5065001;28;20196;-66
2022/12/30 01:37:28;;;;;;;6.28;2.45;;;;;;;;;;5074659;28;20222;-65
2022/12/30 01:39:57;;;;;;;7.93;3.38;;;;;;;;;;5071611;28;20253;-65
2022/12/30 01:42:26;;;;;;;9.07;3.20;;;;;;;;;;5076136;28;20204;-65
2022/12/30 01:44:57;;;;;;;5.10;3.25;;;;;;;;;;5075513;28;20684;-65
2022/12/30 01:47:27;;;;;;;10.73;3.05;;;;;;;;;;5075976;28;20196;-66
2022/12/30 01:49:57;;;;;;;8.27;2.38;;;;;;;;;;5075916;28;20184;-65
2022/12/30 01:52:26;;;;;;;4.47;2.13;;;;;;;;;;5075717;28;20207;-66
2022/12/30 01:54:58;;;;;;;2.88;1.98;;;;;;;;;;5075193;28;20200;-66
2022/12/30 01:57:27;;;;;;;7.38;2.55;;;;;;;;;;5078291;28;20199;-66
2022/12/30 01:59:55;;;;;;;7.57;2.17;;;;;;;;;;5081769;28;20426;-66
2022/12/30 02:02:23;;;;;;;12.23;2.45;;;;;;;;;;5076072;28;20208;-66
2022/12/30 02:04:52;;;;;;;5.55;2.20;;;;;;;;;;5074983;28;20495;-66
2022/12/30 02:07:22;;;;;;;3.30;2.40;;;;;;;;;;5076354;28;20777;-66
2022/12/30 02:09:51;;;;;;;5.80;3.15;;;;;;;;;;5075902;28;20224;-66
2022/12/30 02:12:21;;;;;;;7.20;2.63;;;;;;;;;;5076494;28;20204;-66
2022/12/30 02:14:50;;;;;;;3.70;2.30;;;;;;;;;;5075547;28;20207;-66
2022/12/30 02:17:25;;;;;;;4.78;2.63;;;;;;;;;;5075408;28;20674;-66
2022/12/30 02:20:05;;;;;;;8.77;2.70;;;;;;;;;;5075493;28;20188;-66
2022/12/30 02:22:41;;;;;;;3.95;2.33;;;;;;;;;;5074610;28;20243;-66
2022/12/30 02:25:21;;;;;;;8.52;2.53;;;;;;;;;;5055485;28;20195;-64
2022/12/30 02:28:09;;;;;;;7.25;2.55;;;;;;;;;;5055753;28;20196;-64
2022/12/30 02:30:42;;;;;;;7.22;3.65;;;;;;;;;;5054801;28;20654;-64
2022/12/30 02:33:16;;;;;;;7.65;4.45;;;;;;;;;;5056157;28;20217;-64
2022/12/30 02:35:50;;;;;;;14.32;5.20;;;;;;;;;;5055464;28;20200;-65
2022/12/30 02:38:23;;;;;;;11.27;4.35;;;;;;;;;;5055730;28;20195;-65
2022/12/30 02:46:30;;;;;;;11.90;3.00;;;;;;;;;;5055460;28;20199;-65
2022/12/30 02:49:01;;;;;;;7.05;3.97;;;;;;;;;;5055302;28;20228;-65
2022/12/30 02:54:15;;;;;;;7.78;4.50;;;;;;;;;;5055469;28;20204;-66
2022/12/30 02:56:50;;;;;;;13.05;4.88;;;;;;;;;;5055418;28;20204;-65
2022/12/30 03:05:19;;;;;;;5.50;2.58;;;;;;;;;;5011685;28;20202;-66
2022/12/30 03:07:53;;;;;;;6.00;4.05;;;;;;;;;;5054570;28;20196;-65
2022/12/30 03:13:11;;;;;;;11.52;3.20;;;;;;;;;;5053775;28;20218;-66
2022/12/30 03:15:42;;;;;;;9.55;2.85;;;;;;;;;;5066631;28;20200;-66
2022/12/30 03:18:11;;;;;;;7.22;2.75;;;;;;;;;;5074437;28;20203;-65
2022/12/30 03:20:42;;;;;;;8.13;2.20;;;;;;;;;;5074818;28;20215;-66
2022/12/30 03:28:45;;;;;;;5.60;2.45;;;;;;;;;;5073016;28;20705;-66
2022/12/30 03:31:15;;;;;;;7.95;2.78;;;;;;;;;;5074203;28;20601;-65
2022/12/30 03:33:43;;;;;;;8.13;2.50;;;;;;;;;;5073345;28;20200;-65
2022/12/30 03:36:16;;;;;;;7.68;2.38;;;;;;;;;;5054873;28;20197;-66
2022/12/30 03:38:45;;;;;;;5.85;1.73;;;;;;;;;;5064791;28;20181;-65
2022/12/30 03:41:14;;;;;;;5.47;2.22;;;;;;;;;;5067964;28;20204;-65
2022/12/30 03:43:43;;;;;;;5.72;1.90;;;;;;;;;;5070670;28;20647;-65
2022/12/30 03:46:13;;;;;;;4.13;2.20;;;;;;;;;;5054421;28;20196;-66
2022/12/30 03:48:41;;;;;;;6.55;2.08;;;;;;;;;;5053057;28;20227;-66
2022/12/30 03:51:09;;;;;;;3.67;2.17;;;;;;;;;;5073492;28;20192;-65
2022/12/30 03:53:38;;;;;;;4.05;2.70;;;;;;;;;;5073462;28;20200;-66
2022/12/30 03:56:07;;;;;;;2.97;2.42;;;;;;;;;;5062891;28;20219;-66
2022/12/30 03:58:35;;;;;;;4.13;2.20;;;;;;;;;;5053877;28;20235;-66
2022/12/30 04:01:03;;;;;;;4.18;2.75;;;;;;;;;;5058212;28;20188;-66
2022/12/30 04:03:32;;;;;;;4.38;2.90;;;;;;;;;;5072584;28;20599;-66
2022/12/30 04:06:00;;;;;;;5.60;2.33;;;;;;;;;;5072824;28;20666;-66
2022/12/30 04:08:28;;;;;;;10.35;6.72;;;;;;;;;;5071404;28;20647;-66
2022/12/30 04:10:58;;;;;;;3.50;3.20;;;;;;;;;;5073865;28;20570;-67
2022/12/30 04:13:26;;;;;;;7.22;3.38;;;;;;;;;;5073755;28;20200;-66
2022/12/30 04:15:55;;;;;;;4.13;3.67;;;;;;;;;;5073717;28;20718;-66
2022/12/30 04:18:23;;;;;;;55.63;29.45;;;;;;;;;;5074121;28;20204;-66
2022/12/30 04:20:51;;;;;;;194.82;102.75;;;;;;;;;;5054509;28;20200;-66
2022/12/30 04:23:19;;;;;;;35.75;20.42;;;;;;;;;;5054057;28;20224;-66
2022/12/30 04:25:48;;;;;;;82.60;43.83;;;;;;;;;;5054307;28;20197;-66
2022/12/30 04:28:17;;;;;;;62.55;36.35;;;;;;;;;;5053654;28;20239;-66
2022/12/30 04:30:46;;;;;;;6.47;5.38;;;;;;;;;;5054081;28;20225;-66
2022/12/30 04:33:14;;;;;;;20.98;13.38;;;;;;;;;;5054001;28;20211;-67
2022/12/30 04:35:42;;;;;;;29.63;19.25;;;;;;;;;;5053672;28;20212;-66
2022/12/30 04:38:10;;;;;;;9.55;6.13;;;;;;;;;;5053226;28;20200;-66
2022/12/30 04:40:38;;;;;;;11.10;7.78;;;;;;;;;;5054164;28;20209;-66
2022/12/30 04:43:07;;;;;;;40.65;25.33;;;;;;;;;;5052538;28;20697;-66
2022/12/30 04:45:36;;;;;;;52.42;33.38;;;;;;;;;;5054316;28;20204;-66
2022/12/30 04:48:05;;;;;;;27.73;18.50;;;;;;;;;;5052650;28;20219;-66
2022/12/30 04:50:34;;;;;;;33.50;19.83;;;;;;;;;;5053953;28;20226;-66
2022/12/30 04:53:02;;;;;;;21.23;14.52;;;;;;;;;;5053043;28;20219;-65
2022/12/30 04:55:30;;;;;;;6.47;5.22;;;;;;;;;;5058321;28;20203;-65
2022/12/30 04:57:58;;;;;;;10.82;5.93;;;;;;;;;;5073379;28;20210;-65
2022/12/30 05:00:26;;;;;;;11.55;3.85;;;;;;;;;;5073323;28;20185;-66
2022/12/30 05:02:56;;;;;;;4.32;3.92;;;;;;;;;;5060039;28;20229;-65
2022/12/30 05:05:24;;;;;;;5.10;4.15;;;;;;;;;;5059816;28;20208;-65
2022/12/30 05:07:52;;;;;;;10.05;7.47;;;;;;;;;;5059343;28;20212;-66
2022/12/30 05:10:21;;;;;;;11.68;8.77;;;;;;;;;;5064895;28;20235;-65
2022/12/30 05:12:49;;;;;;;8.68;6.78;;;;;;;;;;5053348;28;20283;-66
2022/12/30 05:15:17;;;;;;;14.38;8.88;;;;;;;;;;5053711;28;20204;-65
2022/12/30 05:17:45;;;;;;;10.35;7.75;;;;;;;;;;5053891;28;20197;-65
2022/12/30 05:20:15;;;;;;;10.13;6.68;;;;;;;;;;5053921;28;20578;-66
2022/12/30 05:22:43;;;;;;;6.28;5.60;;;;;;;;;;5053387;28;20227;-66
2022/12/30 05:27:57;;;;;;;8.13;6.95;;;;;;;;;;5052990;28;20193;-66
2022/12/30 05:30:25;;;;;;;6.72;5.53;;;;;;;;;;5053120;28;20221;-66
2022/12/30 05:32:53;;;;;;;10.68;6.55;;;;;;;;;;5053022;28;20203;-65
2022/12/30 05:35:23;;;;;;;6.40;5.80;;;;;;;;;;5051985;28;20204;-65
2022/12/30 05:37:51;;;;;;;11.70;8.90;;;;;;;;;;5052183;28;20204;-65
2022/12/30 05:40:21;;;;;;;11.48;8.00;;;;;;;;;;5052457;28;20200;-65
2022/12/30 05:42:49;;;;;;;9.80;7.32;;;;;;;;;;5051623;28;20200;-65
2022/12/30 05:45:18;;;;;;;10.73;7.45;;;;;;;;;;5052219;28;20215;-66
2022/12/30 05:47:46;;;;;;;10.48;6.68;;;;;;;;;;5065134;28;20204;-66
2022/12/30 05:50:14;;;;;;;8.95;6.90;;;;;;;;;;5072834;28;20269;-65
2022/12/30 05:52:43;;;;;;;11.52;6.78;;;;;;;;;;5073014;28;20204;-66
2022/12/30 05:55:12;;;;;;;12.48;7.00;;;;;;;;;;5072137;28;20224;-64
2022/12/30 05:57:40;;;;;;;7.82;6.38;;;;;;;;;;5052837;28;20212;-66
2022/12/30 06:00:09;;;;;;;10.85;7.10;;;;;;;;;;5051502;28;20235;-65
2022/12/30 06:02:37;;;;;;;9.10;7.00;;;;;;;;;;5051777;28;20201;-66
2022/12/30 06:05:05;;;;;;;12.07;6.95;;;;;;;;;;5051073;28;20209;-67
2022/12/30 06:07:34;;;;;;;9.95;6.93;;;;;;;;;;5051230;28;20599;-67
2022/12/30 06:10:03;;;;;;;11.07;7.18;;;;;;;;;;5051882;28;20225;-67
2022/12/30 06:12:32;;;;;;;9.60;7.28;;;;;;;;;;5052961;28;20200;-64
2022/12/30 06:15:00;;;;;;;13.93;7.32;;;;;;;;;;5054011;28;20693;-66
2022/12/30 06:17:28;;;;;;;8.48;6.93;;;;;;;;;;5054578;28;20886;-65
2022/12/30 06:19:56;;;;;;;11.65;8.35;;;;;;;;;;5055570;28;20205;-65
2022/12/30 06:22:24;;;;;;;9.00;6.32;;;;;;;;;;5054129;28;20230;-65
2022/12/30 06:24:52;;;;;;;10.77;6.50;;;;;;;;;;5054698;28;20216;-66
2022/12/30 06:27:22;;;;;;;7.70;6.35;;;;;;;;;;5054553;28;20211;-65
2022/12/30 06:29:51;;;;;;;8.30;6.65;;;;;;;;;;5054604;28;20239;-65
2022/12/30 06:32:19;;;;;;;10.88;7.05;;;;;;;;;;5054641;28;20208;-66
2022/12/30 06:34:47;;;;;;;10.00;6.90;;;;;;;;;;5053572;28;20201;-66
2022/12/30 06:37:15;;;;;;;9.63;6.93;;;;;;;;;;5055059;28;20231;-66
2022/12/30 06:39:43;;;;;;;8.00;5.93;;;;;;;;;;5054661;28;20211;-68
2022/12/30 06:42:12;;;;;;;8.40;6.75;;;;;;;;;;5053508;28;20212;-66
2022/12/30 06:44:41;;;;;;;11.75;5.95;;;;;;;;;;5053221;28;20208;-65
2022/12/30 06:47:09;;;;;;;7.70;5.93;;;;;;;;;;5054439;28;20212;-66
2022/12/30 06:49:38;;;;;;;10.77;6.38;;;;;;;;;;5054824;28;20689;-65
2022/12/30 06:52:06;;;;;;;13.23;6.50;;;;;;;;;;5054534;28;20215;-65
2022/12/30 06:54:34;;;;;;;13.88;7.22;;;;;;;;;;5054171;28;20211;-67
2022/12/30 06:57:02;;;;;;;10.93;7.55;;;;;;;;;;5054416;28;20213;-65
2022/12/30 06:59:30;;;;;;;25.80;10.10;;;;;;;;;;5053965;28;20236;-66
2022/12/30 07:02:00;;;;;;;23.85;10.30;;;;;;;;;;5052526;28;20204;-67
2022/12/30 07:04:28;;;;;;;39.97;15.25;;;;;;;;;;5053204;28;20208;-67
2022/12/30 07:06:56;;;;;;;24.60;10.48;;;;;;;;;;5054594;28;20205;-67
2022/12/30 07:09:24;;;;;;;63.90;44.42;;;;;;;;;;5053728;28;20212;-67
2022/12/30 07:11:52;;;;;;;36.58;19.35;;;;;;;;;;5053151;28;20221;-67
2022/12/30 07:14:21;;;;;;;27.60;13.90;;;;;;;;;;5053250;28;20234;-66
2022/12/30 07:16:49;;;;;;;17.63;9.38;;;;;;;;;;5053380;28;20197;-67
2022/12/30 07:19:18;;;;;;;12.13;7.53;;;;;;;;;;5053536;28;20209;-66
2022/12/30 07:21:46;;;;;;;14.40;9.15;;;;;;;;;;5060533;28;20253;-66
2022/12/30 07:24:15;;;;;;;32.10;12.40;;;;;;;;;;5060457;28;20564;-67
2022/12/30 07:26:43;;;;;;;32.60;12.40;;;;;;;;;;5062258;28;20211;-66
2022/12/30 07:29:12;;;;;;;30.67;9.20;;;;;;;;;;5062593;28;20301;-66
2022/12/30 07:31:40;;;;;;;43.20;11.05;;;;;;;;;;5062174;28;20212;-66
2022/12/30 07:34:09;;;;;;;58.30;12.23;;;;;;;;;;5062222;28;20207;-66
2022/12/30 07:36:39;;;;;;;75.47;10.30;;;;;;;;;;5054538;28;20200;-67
2022/12/30 07:39:07;;;;;;;51.88;12.27;;;;;;;;;;5053674;28;20196;-67
2022/12/30 07:41:36;;;;;;;55.35;9.80;;;;;;;;;;5053698;28;20212;-67
2022/12/30 07:44:11;;;;;;;29.63;13.52;;;;;;;;;;5054519;28;20575;-66
2022/12/30 07:46:39;;;;;;;35.05;12.20;;;;;;;;;;5054676;28;20204;-67
2022/12/30 07:49:08;;;;;;;31.42;11.00;;;;;;;;;;5070880;28;20197;-66
2022/12/30 07:51:36;;;;;;;16.95;10.20;;;;;;;;;;5068257;28;20732;-67
2022/12/30 07:54:05;;;;;;;15.93;9.90;;;;;;;;;;5067376;28;20214;-67
2022/12/30 07:56:34;;;;;;;22.90;14.73;;;;;;;;;;5064140;28;20681;-66
2022/12/30 07:59:02;;;;;;;17.65;11.27;;;;;;;;;;5068723;28;20235;-67
2022/12/30 08:01:31;;;;;;;15.82;11.00;;;;;;;;;;5053509;28;20201;-66
2022/12/30 08:03:59;;;;;;;16.67;9.68;;;;;;;;;;5063242;28;20580;-67
2022/12/30 08:06:27;;;;;;;22.35;14.43;;;;;;;;;;5066077;28;20188;-64
2022/12/30 08:08:55;;;;;;;24.40;12.82;;;;;;;;;;5072354;28;20200;-65
2022/12/30 08:11:25;;;;;;;15.15;9.50;;;;;;;;;;5070358;28;20224;-65
2022/12/30 08:13:53;;;;;;;15.40;8.27;;;;;;;;;;5052108;28;20197;-65
2022/12/30 08:16:21;;;;;;;16.55;8.75;;;;;;;;;;5052809;28;20211;-66
2022/12/30 08:18:50;;;;;;;18.52;9.27;;;;;;;;;;5052571;28;20207;-66
2022/12/30 08:21:18;;;;;;;12.38;8.05;;;;;;;;;;5056425;28;20192;-66
2022/12/30 08:23:47;;;;;;;11.50;8.02;;;;;;;;;;5064670;28;20706;-66
2022/12/30 08:26:16;;;;;;;17.13;9.75;;;;;;;;;;5070893;28;20204;-66
2022/12/30 08:28:46;;;;;;;10.93;8.27;;;;;;;;;;5051985;28;20215;-66
2022/12/30 08:31:15;;;;;;;11.48;7.90;;;;;;;;;;5056728;28;20227;-66
2022/12/30 08:33:43;;;;;;;15.55;9.40;;;;;;;;;;5052245;28;20220;-66
2022/12/30 08:36:14;;;;;;;14.95;8.73;;;;;;;;;;5058871;28;20546;-66
2022/12/30 08:38:44;;;;;;;20.70;10.35;;;;;;;;;;5071590;28;20192;-66
2022/12/30 08:41:13;;;;;;;19.42;9.93;;;;;;;;;;5070050;28;20199;-66
2022/12/30 08:43:41;;;;;;;12.18;9.00;;;;;;;;;;5070689;28;20207;-66
2022/12/30 08:46:11;;;;;;;11.38;7.72;;;;;;;;;;5062571;28;20211;-66
2022/12/30 08:48:39;;;;;;;22.00;9.02;;;;;;;;;;5054092;28;20200;-66
2022/12/30 08:51:08;;;;;;;14.75;10.55;;;;;;;;;;5053896;28;20218;-66
2022/12/30 08:53:36;;;;;;;863.35;86.80;;;;;;;;;;5064886;28;20206;-67
2022/12/30 08:56:07;;;;;;;275.33;29.85;;;;;;;;;;5058445;28;20200;-64
2022/12/30 08:58:36;;;;;;;287.80;29.63;;;;;;;;;;5051914;28;20239;-65
2022/12/30 09:01:08;;;;;;;1999.90;256.77;;;;;;;;;;5055977;28;20564;-65
2022/12/30 09:03:37;;;;;;;1148.35;137.80;;;;;;;;;;5057378;28;20198;-65
2022/12/30 09:06:06;;;;;;;1447.30;165.70;;;;;;;;;;5066847;28;20559;-64
2022/12/30 09:08:34;;;;;;;608.50;60.13;;;6.70;99.90;;;;;;5060151;28;20204;-67
2022/12/30 09:11:04;;;;;;;50.35;16.40;;;;;;;;;;5062195;28;20196;-66
2022/12/30 09:13:36;;;;;;;21.27;10.25;;;;;;;;;;5064781;28;20214;-66
2022/12/30 09:16:04;;;;;;;19.00;6.72;;;;;;;;;;5053130;28;20696;-66
2022/12/30 09:18:32;;;;;;;283.33;25.67;;;;;;;;;;5053656;28;20200;-67
2022/12/30 09:21:02;;;;;;;23.33;9.90;;;;;;;;;;5052808;28;20236;-66
2022/12/30 09:23:31;;;;;;;97.22;12.90;;;;;;;;;;5058048;28;20215;-66
2022/12/30 09:25:59;;;;;;;462.20;46.38;;;;;;;;;;5073145;28;20203;-66
2022/12/30 09:28:27;;;;;;;9.82;7.00;;;;;;;;;;5062176;28;20713;-66
2022/12/30 09:30:55;;;;;;;8.07;6.70;;;;;;;;;;5053384;28;20215;-67
2022/12/30 09:33:23;;;;;;;13.90;5.57;;;;;;;;;;5070778;28;20206;-66
2022/12/30 09:35:52;;;;;;;457.48;50.50;;;;;;;;;;5070777;28;20204;-67
2022/12/30 09:38:21;;;;;;;7.78;6.28;;;;;;;;;;5062242;28;20200;-67
2022/12/30 09:40:54;;;;;;;7.97;6.13;;;;;;;;;;5060214;28;20197;-67
2022/12/30 09:43:24;;;;;;;9.85;6.03;;;;;;;;;;5053607;28;20196;-66
2022/12/30 09:46:18;;;;;;;6.45;5.60;;;;;;;;;;5067183;28;20192;-66
2022/12/30 09:48:47;;;;;;;6.85;4.35;;;;;;;;;;5075411;28;20196;-66
2022/12/30 09:51:18;;;;;;;5.22;4.10;;;;;;;;;;5075127;28;20206;-66
2022/12/30 09:53:50;;;;;;;12.10;6.03;;;;;;;;;;5063801;28;20200;-66
2022/12/30 09:56:20;;;;;;;6.50;5.45;;;;;;;;;;5060425;28;20192;-66
2022/12/30 09:58:48;;;;;;;16.35;6.10;;;;;;;;;;5063562;28;20791;-67
2022/12/30 10:01:21;;;;;;;64.68;10.93;;;;;;;;;;5059944;28;20282;-67
2022/12/30 10:03:52;;;;;;;9.20;5.72;;;;;;;;;;5078231;28;20271;-67
2022/12/30 10:06:24;;;;;;;6.00;5.03;;;;;;;;;;5068608;28;20279;-68
2022/12/30 10:09:03;;;;;;;4.63;4.22;;;;;;;;;;5061094;28;20188;-66
2022/12/30 10:11:34;;;;;;;5.43;4.93;;;;;;;;;;5058863;28;20199;-66
2022/12/30 10:14:08;;;;;;;5.15;4.68;;;;;;;;;;5062116;28;20722;-66
2022/12/30 10:16:47;;;;;;;5.53;3.67;;;;;;;;;;5066022;28;20198;-65
2022/12/30 10:19:20;;;;;;;28.88;6.53;;;;;;;;;;5074080;28;20211;-65
2022/12/30 10:21:54;;;;;;;4.10;3.70;;;;;;;;;;5074009;28;20192;-66
2022/12/30 10:24:32;;;;;;;24.40;7.03;;;;;;;;;;5069093;28;20198;-66
2022/12/30 10:27:04;;;;;;;6.55;3.75;;;;;;;;;;5057721;28;20199;-66
2022/12/30 10:29:34;;;;;;;6.68;3.70;;;;;;;;;;5055142;28;20643;-65
2022/12/30 10:32:10;;;;;;;5.07;4.30;;;;;;;;;;5055842;28;20217;-65
2022/12/30 10:34:38;;;;;;;4.18;3.88;;;;;;;;;;5067080;28;20192;-65
2022/12/30 10:37:07;;;;;;;4.53;3.63;;;;;;;;;;5055631;28;20622;-65
2022/12/30 10:39:38;;;;;;;3.17;2.95;;;;;;;;;;5058563;28;20197;-65
2022/12/30 10:42:13;;;;;;;4.05;3.50;;;;;;;;;;5061939;28;20189;-65
2022/12/30 10:44:45;;;;;;;2.92;2.60;;;;;;;;;;5055444;28;20196;-65
2022/12/30 10:47:20;;;;;;;3.40;3.10;;;;;;;;;;5064733;28;20229;-65
2022/12/30 10:49:57;;;;;;;4.75;3.70;;;;;;;;;;5059148;28;20197;-65
2022/12/30 10:52:25;;;;;;;4.20;3.80;;;;;;;;;;5054391;28;20212;-65
2022/12/30 10:54:54;;;;;;;7.47;4.72;;;;;;;;;;5068937;28;20596;-66
2022/12/30 10:57:24;;;;;;;4.18;3.80;;;;;;;;;;5061374;28;20199;-65
2022/12/30 10:59:56;;;;;;;8.18;4.70;;;;;;;;;;5060604;28;20602;-66
2022/12/30 11:02:26;;;;;;;3.85;3.55;;;;;;;;;;5063328;28;20193;-66
2022/12/30 11:04:54;;;;;;;4.20;3.65;;;;;;;;;;5061577;28;20193;-65
2022/12/30 11:07:23;;;;;;;4.85;3.70;;;;;;;;;;5063822;28;20565;-66
2022/12/30 11:09:51;;;;;;;6.07;3.88;;;;;;;;;;5061111;28;20200;-66
2022/12/30 11:15:13;;;;;;;3.13;2.83;;;;;;;;;;5057943;28;20262;-66
2022/12/30 11:17:43;;;;;;;2.58;2.45;;;;;;;;;;5062415;28;20194;-67
2022/12/30 11:20:22;;;;;;;3.47;2.95;;;;;;;;;;5062893;28;20205;-66
2022/12/30 11:22:51;;;;;;;2.90;2.70;;;;;;;;;;5052568;28;20212;-66
2022/12/30 11:25:24;;;;;;;4.68;2.65;;;;;;;;;;5060045;28;20200;-66
2022/12/30 11:27:56;;;;;;;3.47;2.92;;;;;;;;;;5060708;28;20203;-64
2022/12/30 11:30:25;;;;;;;8.40;5.70;;;;;;;;;;5061398;28;20230;-65
2022/12/30 11:32:54;;;;;;;6.13;5.30;;;;;;;;;;5060523;28;20212;-66
2022/12/30 11:35:39;;;;;;;10.52;6.55;;;;;;;;;;5059502;28;20192;-65
2022/12/30 11:38:27;;;;;;;15.35;6.38;;;;;;;;;;5058552;28;20201;-66
2022/12/30 11:40:55;;;;;;;9.05;4.95;;;;;;;;;;5072266;28;20270;-65
2022/12/30 11:43:25;;;;;;;9.07;6.57;;;;;;;;;;5057729;28;20196;-66
2022/12/30 11:45:57;;;;;;;3.28;2.95;;;;;;;;;;5061601;28;20199;-67
2022/12/30 11:48:30;;;;;;;3.10;2.80;;;;;;;;;;5065284;28;20193;-66
2022/12/30 11:50:59;;;;;;;4.75;3.00;;;;;;;;;;5052584;28;20192;-65
2022/12/30 11:53:30;;;;;;;5.03;2.95;;;;;;;;;;5054828;28;20219;-65
2022/12/30 11:55:59;;;;;;;8.35;3.80;;;;;;;;;;5061329;28;20201;-66
2022/12/30 11:58:33;;;;;;;14.30;9.55;;;;;;;;;;5055248;28;20715;-66
2022/12/30 12:01:03;;;;;;;4.68;3.83;;;;;;;;;;5070522;28;20203;-66
2022/12/30 12:07:44;;;;;;;11.02;8.85;;;;;;;;;;5061309;28;20187;-64
2022/12/30 12:10:19;;;;;;;5.60;4.55;;;;;;;;;;5064717;28;20204;-65
2022/12/30 12:12:50;;;;;;;3.85;2.97;;;;;;;;;;5062003;28;20214;-65
2022/12/30 12:15:24;;;;;;;3.00;2.80;;;;;;;;;;5059433;28;20200;-65
2022/12/30 12:17:55;;;;;;;5.72;5.22;;;;;;;;;;5064021;28;20545;-65
2022/12/30 12:20:27;;;;;;;7.95;4.80;;;;;;;;;;5052843;28;20188;-65
2022/12/30 12:23:01;;;;;;;4.22;3.17;;;;;;;;;;5060412;28;20223;-65
2022/12/30 12:25:34;;;;;;;2.97;2.75;;;;;;;;;;5072543;28;20192;-65
2022/12/30 12:28:02;;;;;;;3.97;3.40;;;;;;;;;;5052734;28;20188;-65
2022/12/30 12:30:39;;;;;;;4.35;3.50;;;;;;;;;;5052922;28;20201;-65
2022/12/30 12:33:13;;;;;;;5.30;3.65;;;;;;;;;;5053113;28;20226;-65
2022/12/30 12:35:46;;;;;;;3.30;3.00;;;;;;;;;;5063428;28;20198;-65
2022/12/30 12:38:29;;;;;;;6.03;3.67;;;;;;;;;;5062638;28;20204;-65
2022/12/30 12:41:16;;;;;;;3.38;2.85;;;;;;;;;;5059977;28;20207;-65
2022/12/30 12:43:52;;;;;;;5.82;2.80;;;;;;;;;;5056166;28;20196;-65
2022/12/30 12:46:29;;;;;;;3.20;3.00;;;;;;;;;;5052574;28;20188;-65
2022/12/30 12:49:12;;;;;;;7.45;6.00;;;;;;;;;;5051959;28;20267;-66
2022/12/30 12:51:44;;;;;;;5.32;3.78;;;;;;;;;;5047165;28;20574;-65
2022/12/30 12:54:31;;;;;;;5.47;3.47;;;;;;;;;;5068469;28;20208;-66
2022/12/30 12:57:07;;;;;;;8.05;4.40;;;;;;;;;;5070570;28;20227;-65
2022/12/30 12:59:50;;;;;;;5.75;5.15;;;;;;;;;;5063031;28;20585;-65
2022/12/30 13:02:31;;;;;;;4.15;3.17;;;;;;;;;;5055120;28;20605;-65
2022/12/30 13:05:02;;;;;;;37.78;20.05;;;;;;;;;;5060280;28;20184;-66
2022/12/30 13:07:36;;;;;;;8.25;5.30;;;;;;;;;;5058845;28;20197;-65
2022/12/30 13:10:15;;;;;;;9.57;2.95;;;;;;;;;;5063454;28;20196;-65
2022/12/30 13:12:47;;;;;;;3.58;3.22;;;;;;;;;;5071809;28;20188;-65
2022/12/30 13:15:21;;;;;;;3.33;3.10;;;;;;;;;;5066764;28;20199;-65
2022/12/30 13:17:53;;;;;;;4.03;2.80;;;;;;;;;;5069055;28;20195;-66
2022/12/30 13:20:22;;;;;;;2.70;2.35;;;;;;;;;;5071810;28;20202;-66
2022/12/30 13:22:50;;;;;;;7.30;3.92;;;;;;;;;;5079995;28;20771;-66
2022/12/30 13:25:21;;;;;;;9.77;6.32;;;;;;;;;;5068461;28;20212;-66
2022/12/30 13:27:50;;;;;;;16.25;9.73;;;;;;;;;;5071730;28;20589;-66
2022/12/30 13:30:20;;;;;;;41.20;9.65;;;;;;;;;;5073170;28;20196;-65
2022/12/30 13:32:52;;;;;;;3.25;2.95;;;;;;;;;;5072861;28;20261;-65
2022/12/30 13:35:34;;;;;;;18.45;9.88;;;;;;;;;;5068058;28;20246;-65
2022/12/30 13:38:08;;;;;;;20.55;8.63;;;;;;;;;;5064448;28;20196;-65
2022/12/30 13:40:42;;;;;;;8.10;5.75;;;;;;;;;;5071367;28;20196;-66
2022/12/30 13:43:19;;;;;;;24.15;12.45;;;;;;;;;;5072014;28;20214;-65
2022/12/30 13:45:47;;;;;;;20.52;12.18;;;;;;;;;;5076061;28;20190;-65
2022/12/30 13:48:20;;;;;;;6.65;5.00;;;;;;;;;;5067907;28;20201;-65
2022/12/30 13:50:59;;;;;;;6.63;3.28;;;;;;;;;;5067185;28;20188;-66
2022/12/30 13:53:45;;;;;;;6.82;5.35;;;;;;;;;;5060044;28;20219;-65
2022/12/30 13:56:15;;;;;;;3.92;3.33;;;;;;;;;;5065548;28;20197;-67
2022/12/30 13:58:47;;;;;;;6.68;3.88;;;;;;;;;;5055402;28;20723;-66
2022/12/30 14:01:26;;;;;;;6.78;4.78;;;;;;;;;;5067812;28;20670;-66
2022/12/30 14:04:09;;;;;;;12.13;3.42;;;;;;;;;;5074676;28;20524;-66
2022/12/30 14:06:44;;;;;;;9.82;3.53;;;;;;;;;;5074454;28;20211;-67
2022/12/30 14:09:17;;;;;;;4.78;4.07;;;;;;;;;;5068722;28;20568;-65
2022/12/30 14:12:04;;;;;;;12.82;7.00;;;;;;;;;;5075151;28;20573;-66
2022/12/30 14:14:32;;;;;;;13.02;8.63;;;;;;;;;;5061993;28;20706;-66
2022/12/30 14:17:01;;;;;;;10.52;7.72;;;;;;;;;;5075124;28;20208;-66
2022/12/30 14:19:51;;;;;;;314.83;32.55;;;;;;;;;;5074942;28;20208;-66
2022/12/30 14:22:37;;;;;;;11.32;4.25;;;;;;;;;;5075074;28;20220;-66
2022/12/30 14:25:24;;;;;;;21.85;12.45;;;;;;;;;;5074728;28;20207;-65
2022/12/30 14:27:53;;;;;;;10.95;5.15;;;;;;;;;;5074716;28;20568;-66
2022/12/30 14:30:29;;;;;;;6.13;5.25;;;;;;;;;;5074325;28;20716;-65
2022/12/30 14:32:58;;;;;;;7.45;5.65;;;;;;;;;;5074389;28;20571;-66
2022/12/30 14:35:26;;;;;;;19.52;9.23;;;;;;;;;;5071118;28;20578;-65
2022/12/30 14:38:09;;;;;;;18.13;9.48;;;;;;;;;;5064831;28;20208;-66
2022/12/30 14:40:39;;;;;;;10.02;3.92;;;;;;;;;;5073947;28;20283;-67
2022/12/30 14:43:18;;;;;;;10.52;5.25;;;;;;;;;;5073403;28;20659;-66
2022/12/30 14:45:46;;;;;;;19.23;5.18;;;;;;;;;;5074427;28;20211;-67
2022/12/30 14:48:40;;;;;;;7.30;4.63;;;;;;;;;;5054823;28;20511;-65
2022/12/30 14:51:08;;;;;;;7.63;3.83;;;;;;;;;;5054091;28;20215;-65
2022/12/30 14:53:38;;;;;;;6.60;4.85;;;;;;;;;;5054515;28;20675;-66
2022/12/30 14:56:16;;;;;;;13.05;6.28;;;;;;;;;;5054393;28;20196;-65
2022/12/30 14:58:44;;;;;;;13.20;6.75;;;;;;;;;;5062019;28;20251;-65
2022/12/30 15:01:13;;;;;;;28.30;17.52;;;;;;;;;;5054016;28;20204;-66
2022/12/30 15:03:41;;;;;;;17.38;11.75;;;;;;;;;;5053726;28;20215;-65
2022/12/30 15:06:10;;;;;;;13.60;8.10;;;;;;;;;;5052863;28;20209;-65
2022/12/30 15:08:39;;;;;;;19.17;11.98;;;;;;;;;;5054068;28;20212;-66
2022/12/30 15:11:16;;;;;;;9.50;7.82;;;;;;;;;;5054278;28;20207;-65
2022/12/30 15:13:45;;;;;;;8.40;4.38;;;;;;;;;;5053566;28;20204;-65
2022/12/30 15:16:16;;;;;;;4.20;3.80;;;;;;;;;;5056354;28;20208;-66
2022/12/30 15:18:45;;;;;;;6.82;4.10;;;;;;;;;;5053961;28;20193;-66
2022/12/30 15:21:14;;;;;;;6.35;3.85;;;;;;;;;;5065888;28;20268;-67
2022/12/30 15:23:42;;;;;;;16.58;6.50;;;;;;;;;;5074151;28;20224;-66
2022/12/30 15:26:17;;;;;;;5.97;4.97;;;;;;;;;;5074452;28;20212;-65
2022/12/30 15:28:46;;;;;;;8.63;5.45;;;;;;;;;;5073878;28;20580;-66
2022/12/30 15:31:18;;;;;;;11.90;7.05;;;;;;;;;;5072302;28;20256;-66
2022/12/30 15:33:56;;;;;;;16.25;9.77;;;;;;;;;;5073404;28;20188;-65
2022/12/30 15:36:24;;;;;;;24.42;11.80;;;;;;;;;;5072526;28;20298;-65
2022/12/30 15:38:53;;;;;;;17.42;11.77;;;;;;;;;;5087011;28;20811;-65
2022/12/30 15:41:25;;;;;;;8.30;5.88;;;;;;;;;;5068278;28;20211;-66
2022/12/30 15:43:55;;;;;;;37.28;18.23;;;;;;;;;;5069637;28;20231;-65
2022/12/30 15:46:25;;;;;;;9.10;6.28;;;;;;;;;;5066574;28;20261;-65
2022/12/30 15:49:08;;;;;;;4.65;4.13;;;;;;;;;;5070520;28;20228;-65
2022/12/30 15:51:37;;;;;;;12.35;6.07;;;;;;;;;;5065111;28;20271;-66
2022/12/30 15:54:07;;;;;;;9.93;6.38;;;;;;;;;;5082840;28;20279;-65
2022/12/30 15:56:36;;;;;;;13.50;9.30;;;;;;;;;;5082774;28;20200;-65
2022/12/30 15:59:06;;;;;;;34.45;21.08;;;;;;;;;;5082890;28;20314;-65